Time;durP1;ratioP1;P1;durP2;ratioP2;P2;SDS_P1;SDS_P2;PMS_P1;PMS_P2;Temp;Humidity;BMP_temperature;BMP_pressure;BME280_temperature;BME280_humidity;BME280_pressure;Samples;Min_cycle;Max_cycle;Signal;HPM_P1;HPM_P2
2022/02/12 00:01:23;;;;;;;79.43;38.78;;;;;;;8.92;45.05;95772.16;4971168;28;20203;-65
2022/02/12 00:03:51;;;;;;;79.03;38.63;;;;;;;8.84;44.77;95772.50;4971044;28;20211;-64
2022/02/12 00:06:18;;;;;;;72.07;37.70;;;;;;;8.66;45.20;95753.44;4971967;28;20203;-67
2022/02/12 00:08:45;;;;;;;72.70;38.33;;;;;;;8.78;45.01;95768.16;4971821;28;20655;-66
2022/02/12 00:11:12;;;;;;;67.13;36.78;;;;;;;8.79;44.41;95777.59;4971461;28;20246;-66
2022/02/12 00:13:39;;;;;;;62.65;34.30;;;;;;;8.92;44.29;95774.75;4970815;28;20231;-66
2022/02/12 00:16:05;;;;;;;63.63;33.58;;;;;;;8.68;44.43;95783.56;4971346;28;20231;-66
2022/02/12 00:18:32;;;;;;;65.65;33.33;;;;;;;7.99;46.08;95783.19;4971207;28;20666;-64
2022/02/12 00:20:59;;;;;;;69.97;34.30;;;;;;;7.53;47.50;95794.06;4971551;28;20204;-65
2022/02/12 00:23:26;;;;;;;61.45;33.95;;;;;;;7.32;47.44;95786.63;4970761;28;20303;-64
2022/02/12 00:25:53;;;;;;;60.53;33.05;;;;;;;7.36;47.97;95800.03;4971179;28;20218;-66
2022/02/12 00:28:21;;;;;;;74.35;33.08;;;;;;;7.81;46.82;95791.00;4970583;28;20285;-66
2022/02/12 00:30:48;;;;;;;62.58;32.03;;;;;;;8.22;45.00;95788.53;4971343;28;20199;-66
2022/02/12 00:33:17;;;;;;;64.50;32.65;;;;;;;8.08;45.26;95781.88;4971409;28;20199;-66
2022/02/12 00:35:45;;;;;;;67.00;32.15;;;;;;;8.22;44.81;95793.75;4971499;28;20235;-66
2022/02/12 00:38:12;;;;;;;59.67;30.48;;;;;;;8.18;45.12;95803.03;4970673;28;20207;-66
2022/02/12 00:40:39;;;;;;;61.65;32.22;;;;;;;8.25;44.57;95806.41;4971149;28;20250;-66
2022/02/12 00:43:06;;;;;;;57.22;31.20;;;;;;;8.18;44.14;95808.25;4971194;28;20216;-67
2022/02/12 00:45:33;;;;;;;71.45;34.47;;;;;;;8.13;44.31;95808.94;4970058;28;20592;-65
2022/02/12 00:48:00;;;;;;;72.13;36.97;;;;;;;7.90;44.79;95821.03;4971540;28;20566;-65
2022/02/12 00:50:26;;;;;;;80.85;41.47;;;;;;;7.85;45.03;95823.47;4970732;28;20706;-66
2022/02/12 00:52:53;;;;;;;94.00;44.92;;;;;;;7.90;44.69;95832.22;4971116;28;20622;-68
2022/02/12 00:55:20;;;;;;;85.15;43.95;;;;;;;7.90;45.25;95815.81;4970880;28;20227;-67
2022/02/12 00:57:47;;;;;;;120.15;57.70;;;;;;;7.79;45.64;95834.78;4971190;28;20632;-65
2022/02/12 01:00:14;;;;;;;122.20;58.30;;;;;;;7.68;45.77;95807.56;4970440;28;20757;-66
2022/02/12 01:02:41;;;;;;;122.40;57.85;;;;;;;7.61;45.42;95830.28;4959233;28;20203;-65
2022/02/12 01:05:10;;;;;;;135.48;68.25;;;;;;;7.73;45.10;95840.84;4951192;29;20188;-66
2022/02/12 01:07:37;;;;;;;139.20;64.07;;;;;;;7.83;45.83;95841.13;4951131;29;20672;-64
2022/02/12 01:10:04;;;;;;;114.47;59.15;;;;;;;7.66;45.81;95845.31;4950241;28;20214;-65
2022/02/12 01:12:31;;;;;;;125.07;62.53;;;;;;;7.77;45.29;95842.00;4950908;29;20199;-64
2022/02/12 01:14:58;;;;;;;131.98;61.67;;;;;;;7.63;45.62;95845.72;4950909;29;20219;-66
2022/02/12 01:17:26;;;;;;;140.85;63.83;;;;;;;7.23;47.29;95837.41;4951273;29;20196;-65
2022/02/12 01:19:53;;;;;;;134.80;63.90;;;;;;;7.35;47.34;95832.34;4950069;29;20207;-65
2022/02/12 01:22:19;;;;;;;128.73;60.95;;;;;;;6.98;47.97;95847.00;4951159;29;20308;-64
2022/02/12 01:24:47;;;;;;;124.43;59.05;;;;;;;7.28;47.13;95853.22;4950771;29;20188;-65
2022/02/12 01:27:14;;;;;;;130.32;60.53;;;;;;;6.60;48.50;95843.63;4951198;29;20882;-64
2022/02/12 01:29:42;;;;;;;123.57;60.65;;;;;;;7.07;47.80;95851.78;4949794;28;20571;-65
2022/02/12 01:32:09;;;;;;;127.45;60.10;;;;;;;7.14;47.17;95851.72;4949813;28;20671;-65
2022/02/12 01:34:37;;;;;;;121.30;55.95;;;;;;;7.28;47.48;95858.44;4950789;29;20627;-66
2022/02/12 01:37:06;;;;;;;121.65;57.65;;;;;;;6.47;48.82;95847.06;4951160;29;20184;-67
2022/02/12 01:39:33;;;;;;;118.90;55.88;;;;;;;6.52;48.78;95851.66;4950698;29;20188;-65
2022/02/12 01:42:01;;;;;;;109.57;52.05;;;;;;;6.35;49.88;95864.31;4951144;29;20582;-65
2022/02/12 01:44:34;;;;;;;115.65;53.75;;;;;;;6.90;48.19;95863.69;4951153;29;20659;-65
2022/02/12 01:47:02;;;;;;;103.07;52.97;;;;;;;7.27;46.99;95861.25;4951819;29;20281;-64
2022/02/12 01:49:30;;;;;;;117.45;54.80;;;;;;;7.35;47.01;95868.84;4951767;29;20211;-64
2022/02/12 01:51:58;;;;;;;110.60;56.05;;;;;;;7.25;46.96;95865.88;4950979;29;20208;-66
2022/02/12 01:54:28;;;;;;;108.18;52.10;;;;;;;7.21;47.40;95872.53;4950406;29;20191;-65
2022/02/12 01:56:57;;;;;;;107.43;51.45;;;;;;;7.25;47.36;95879.72;4951042;29;20236;-65
2022/02/12 01:59:24;;;;;;;108.30;52.13;;;;;;;7.22;47.29;95869.72;4950167;29;20204;-67
2022/02/12 02:01:51;;;;;;;106.28;51.72;;;;;;;6.30;49.26;95876.34;4950932;29;20238;-65
2022/02/12 02:04:19;;;;;;;93.57;47.78;;;;;;;6.65;48.84;95880.25;4933460;29;20224;-65
2022/02/12 02:06:47;;;;;;;90.43;45.08;;;;;;;6.78;48.48;95878.38;4951523;29;20207;-66
2022/02/12 02:09:15;;;;;;;95.10;48.58;;;;;;;7.06;48.00;95883.25;4949974;29;20196;-65
2022/02/12 02:11:43;;;;;;;83.97;41.22;;;;;;;7.20;47.45;95887.38;4950995;29;20204;-66
2022/02/12 02:14:13;;;;;;;79.05;41.25;;;;;;;6.34;49.07;95896.56;4950561;29;20695;-63
2022/02/12 02:16:42;;;;;;;78.72;41.88;;;;;;;6.68;48.01;95872.81;4951643;29;20290;-66
2022/02/12 02:19:10;;;;;;;88.35;41.53;;;;;;;7.09;47.33;95896.66;4952621;29;20196;-66
2022/02/12 02:21:39;;;;;;;83.13;43.70;;;;;;;7.25;47.47;95902.38;4952522;29;20196;-65
2022/02/12 02:24:07;;;;;;;89.93;42.00;;;;;;;7.19;46.80;95897.00;4950346;29;20199;-66
2022/02/12 02:26:35;;;;;;;82.63;41.08;;;;;;;6.79;48.92;95898.22;4949566;29;20215;-65
2022/02/12 02:29:02;;;;;;;76.82;40.65;;;;;;;7.14;47.21;95909.06;4950136;29;20210;-66
2022/02/12 02:31:29;;;;;;;78.15;40.38;;;;;;;7.08;47.19;95908.09;4950311;29;20200;-65
2022/02/12 02:33:56;;;;;;;86.80;39.58;;;;;;;7.08;47.13;95899.47;4950138;29;20384;-65
2022/02/12 02:36:23;;;;;;;76.68;39.38;;;;;;;7.28;46.57;95899.38;4950258;29;20204;-66
2022/02/12 02:38:50;;;;;;;73.80;39.13;;;;;;;7.20;46.69;95900.41;4933242;29;20204;-65
2022/02/12 02:41:17;;;;;;;73.32;39.97;;;;;;;7.26;46.41;95911.81;4950696;29;20196;-67
2022/02/12 02:43:44;;;;;;;76.50;39.92;;;;;;;7.16;47.03;95912.25;4950391;29;20200;-66
2022/02/12 02:46:16;;;;;;;74.70;39.28;;;;;;;7.36;46.63;95896.50;4950718;28;20207;-65
2022/02/12 02:48:43;;;;;;;73.63;37.88;;;;;;;7.22;46.38;95900.19;4952856;29;20207;-64
2022/02/12 02:56:43;;;;;;;74.00;39.08;;;;;;;7.04;47.29;95912.09;4955100;29;20238;-67
2022/02/12 02:59:10;;;;;;;74.25;38.55;;;;;;;6.88;47.21;95914.38;4954286;29;20203;-66
2022/02/12 03:01:37;;;;;;;74.82;37.10;;;;;;;6.75;48.29;95912.66;4954260;29;20259;-65
2022/02/12 03:04:04;;;;;;;67.38;36.75;;;;;;;6.31;48.77;95911.81;4953047;29;20203;-66
2022/02/12 03:06:32;;;;;;;69.22;36.20;;;;;;;6.45;49.42;95910.75;4953542;29;20207;-65
2022/02/12 03:08:59;;;;;;;65.60;36.13;;;;;;;6.46;49.19;95909.75;4953447;29;20208;-64
2022/02/12 03:11:26;;;;;;;71.53;36.45;;;;;;;6.50;49.60;95932.56;4953821;29;20210;-66
2022/02/12 03:13:55;;;;;;;68.20;34.45;;;;;;;6.54;48.78;95912.13;4952682;29;20595;-65
2022/02/12 03:16:22;;;;;;;62.85;34.58;;;;;;;6.82;48.22;95916.03;4952623;29;20238;-66
2022/02/12 03:18:50;;;;;;;72.22;34.53;;;;;;;7.02;47.47;95927.19;4952477;29;20211;-66
2022/02/12 03:21:17;;;;;;;69.70;34.97;;;;;;;7.03;47.37;95936.59;4953851;29;20893;-65
2022/02/12 03:23:44;;;;;;;67.85;35.53;;;;;;;7.17;47.27;95938.09;4952781;29;20207;-65
2022/02/12 03:26:13;;;;;;;65.30;35.17;;;;;;;6.91;47.40;95935.66;4953389;29;20211;-65
2022/02/12 03:28:39;;;;;;;76.97;37.53;;;;;;;7.00;47.83;95936.19;4952802;29;20199;-65
2022/02/12 03:31:06;;;;;;;70.88;37.28;;;;;;;6.91;47.16;95914.81;4953398;29;20642;-65
2022/02/12 03:33:33;;;;;;;78.25;35.97;;;;;;;7.09;47.86;95943.56;4952691;29;20208;-66
2022/02/12 03:36:00;;;;;;;65.03;35.13;;;;;;;6.92;48.03;95955.47;4952938;29;20733;-65
2022/02/12 03:38:30;;;;;;;68.13;34.67;;;;;;;7.07;47.37;95961.22;4952397;29;20314;-65
2022/02/12 03:41:02;;;;;;;63.75;34.60;;;;;;;6.92;46.95;95963.28;4953332;29;20583;-64
2022/02/12 03:43:31;;;;;;;64.22;35.60;;;;;;;6.75;47.49;95956.94;4952747;29;20931;-65
2022/02/12 03:45:59;;;;;;;80.25;42.15;;;;;;;6.69;47.71;95976.00;4953318;29;20223;-68
2022/02/12 03:48:27;;;;;;;77.85;40.88;;;;;;;6.66;48.35;95965.97;4952215;29;20267;-66
2022/02/12 03:50:55;;;;;;;84.53;43.08;;;;;;;6.30;49.45;95967.44;4953085;29;20198;-65
2022/02/12 03:53:23;;;;;;;77.80;40.10;;;;;;;6.59;48.29;95977.41;4952078;29;21000;-65
2022/02/12 03:55:50;;;;;;;76.63;39.05;;;;;;;6.53;48.31;95981.63;4952987;29;20240;-65
2022/02/12 03:58:19;;;;;;;75.18;39.65;;;;;;;6.65;47.79;95982.63;4951615;28;20266;-67
2022/02/12 04:00:48;;;;;;;77.00;40.20;;;;;;;6.55;47.66;95977.00;4952982;29;20211;-67
2022/02/12 04:03:15;;;;;;;88.03;42.85;;;;;;;6.68;47.58;95977.00;4952123;29;20636;-65
2022/02/12 04:05:46;;;;;;;73.78;39.90;;;;;;;6.64;47.79;95983.59;4953216;29;20196;-67
2022/02/12 04:08:18;;;;;;;73.15;40.22;;;;;;;6.65;47.19;95998.25;4951980;29;20663;-65
2022/02/12 04:10:49;;;;;;;80.05;41.92;;;;;;;6.44;47.58;95995.84;4952681;29;20687;-65
2022/02/12 04:13:17;;;;;;;87.97;44.30;;;;;;;6.37;47.25;95999.50;4952065;29;20667;-64
2022/02/12 04:15:44;;;;;;;90.63;45.90;;;;;;;6.38;47.66;96008.91;4952652;29;20220;-65
2022/02/12 04:18:12;;;;;;;105.68;52.80;;;;;;;6.45;47.88;96025.31;4952761;29;20208;-66
2022/02/12 04:20:40;;;;;;;115.55;57.13;;;;;;;6.23;48.21;96019.53;4952720;29;20206;-66
2022/02/12 04:23:07;;;;;;;126.93;65.45;;;;;;;6.46;47.77;96030.31;4951968;29;20203;-65
2022/02/12 04:25:34;;;;;;;148.63;73.53;;;;;;;6.37;47.43;96013.28;4951537;29;20200;-65
2022/02/12 04:28:09;;;;;;;146.57;75.13;;;;;;;6.36;47.88;96029.13;4952498;29;20208;-65
2022/02/12 04:30:38;;;;;;;138.57;70.90;;;;;;;6.23;48.16;96018.72;4951569;29;20258;-66
2022/02/12 04:33:06;;;;;;;90.90;44.85;;;;;;;6.37;49.43;96036.72;4952085;29;20203;-66
2022/02/12 04:35:33;;;;;;;71.78;38.15;;;;;;;6.33;50.42;96039.94;4951517;29;20219;-64
2022/02/12 04:38:00;;;;;;;38.17;20.15;;;;;;;6.54;51.36;96048.34;4951991;29;20652;-65
2022/02/12 04:40:28;;;;;;;30.60;17.27;;;;;;;6.98;51.24;96050.25;4951722;29;20214;-65
2022/02/12 04:42:55;;;;;;;29.77;16.35;;;;;;;6.90;51.85;96053.88;4951992;29;20200;-64
2022/02/12 04:45:24;;;;;;;33.03;17.63;;;;;;;7.43;50.43;96017.19;4951286;29;20215;-66
2022/02/12 04:47:51;;;;;;;31.20;18.70;;;;;;;7.40;51.89;96056.72;4954449;29;20544;-65
2022/02/12 04:50:19;;;;;;;30.58;19.23;;;;;;;7.64;52.12;96056.03;4953952;29;20203;-64
2022/02/12 04:52:45;;;;;;;34.70;19.15;;;;;;;7.44;52.37;96065.75;4957204;29;20274;-65
2022/02/12 04:55:12;;;;;;;32.75;19.80;;;;;;;7.59;52.92;96074.09;4954591;29;20219;-64
2022/02/12 04:57:39;;;;;;;33.83;18.23;;;;;;;7.53;52.07;96083.56;4952302;29;20219;-64
2022/02/12 05:00:08;;;;;;;37.28;20.50;;;;;;;7.60;52.66;96076.50;4951843;29;20686;-64
2022/02/12 05:02:34;;;;;;;35.63;21.77;;;;;;;7.53;53.12;96085.38;4952200;29;20203;-65
2022/02/12 05:05:02;;;;;;;33.85;21.95;;;;;;;7.27;54.20;96085.44;4934272;29;20211;-66
2022/02/12 05:07:29;;;;;;;36.13;22.38;;;;;;;7.73;52.89;96086.88;4951531;29;20199;-64
2022/02/12 05:09:56;;;;;;;36.75;23.60;;;;;;;8.12;52.34;96094.47;4950733;28;20200;-67
2022/02/12 05:12:24;;;;;;;36.47;23.48;;;;;;;7.89;53.16;96078.56;4951399;29;20192;-64
2022/02/12 05:14:52;;;;;;;38.47;25.30;;;;;;;8.00;53.03;96097.97;4949299;28;20211;-65
2022/02/12 05:17:18;;;;;;;43.55;25.80;;;;;;;7.71;54.31;96096.72;4950288;28;20707;-66
2022/02/12 05:19:45;;;;;;;47.30;28.55;;;;;;;8.03;53.51;96102.75;4949547;28;20683;-64
2022/02/12 05:22:12;;;;;;;42.20;25.88;;;;;;;7.74;54.47;96113.75;4950696;28;20278;-65
2022/02/12 05:24:39;;;;;;;44.10;27.83;;;;;;;7.85;54.02;96110.50;4951612;28;20266;-64
2022/02/12 05:27:06;;;;;;;49.13;29.10;;;;;;;7.59;54.84;96105.41;4950237;28;20659;-64
2022/02/12 05:29:33;;;;;;;51.63;31.35;;;;;;;7.66;55.46;96106.19;4949943;28;20216;-66
2022/02/12 05:32:00;;;;;;;47.08;29.38;;;;;;;7.84;54.73;96116.72;4950402;28;20271;-67
2022/02/12 05:34:27;;;;;;;49.15;32.22;;;;;;;7.63;55.50;96106.56;4951224;29;20207;-69
2022/02/12 05:36:54;;;;;;;50.25;31.63;;;;;;;7.81;55.82;96109.31;4951265;29;20231;-68
2022/02/12 05:39:21;;;;;;;50.10;31.88;;;;;;;7.86;55.93;96122.53;4949679;29;20191;-67
2022/02/12 05:41:48;;;;;;;52.28;32.80;;;;;;;7.87;56.33;96137.19;4950672;29;20195;-66
2022/02/12 05:44:15;;;;;;;69.38;33.72;;;;;;;7.76;56.44;96125.59;4950170;29;20208;-67
2022/02/12 05:46:42;;;;;;;49.97;33.53;;;;;;;7.67;57.25;96131.25;4950810;29;20227;-66
2022/02/12 05:49:09;;;;;;;52.70;31.98;;;;;;;7.59;57.86;96131.50;4950634;29;20184;-68
2022/02/12 05:51:36;;;;;;;49.38;30.05;;;;;;;8.03;55.88;96134.88;4950268;29;20212;-67
2022/02/12 05:54:05;;;;;;;53.85;32.35;;;;;;;7.94;56.41;96140.56;4950865;29;20206;-63
2022/02/12 05:56:33;;;;;;;52.00;33.72;;;;;;;8.23;55.72;96134.75;4949072;29;20286;-63
2022/02/12 05:59:03;;;;;;;55.33;34.83;;;;;;;8.17;55.93;96135.63;4949685;29;20215;-65
2022/02/12 06:01:30;;;;;;;49.13;33.10;;;;;;;8.08;55.90;96142.09;4951119;29;20195;-63
2022/02/12 06:03:57;;;;;;;55.72;33.38;;;;;;;8.21;56.09;96153.25;4950558;29;20192;-64
2022/02/12 06:06:24;;;;;;;50.22;32.15;;;;;;;7.85;57.05;96147.03;4951135;29;20271;-65
2022/02/12 06:08:53;;;;;;;53.15;33.00;;;;;;;8.75;54.50;96160.56;4950221;29;20207;-66
2022/02/12 06:11:20;;;;;;;46.03;27.65;;;;;;;8.33;55.28;96152.63;4950912;29;20206;-67
2022/02/12 06:13:51;;;;;;;51.53;32.50;;;;;;;8.60;55.61;96154.84;4950357;29;20232;-66
2022/02/12 06:16:20;;;;;;;47.05;30.90;;;;;;;8.01;56.54;96151.78;4950853;29;20216;-63
2022/02/12 06:18:47;;;;;;;54.33;31.35;;;;;;;7.88;56.75;96157.06;4950727;29;20219;-62
2022/02/12 06:21:15;;;;;;;48.55;31.42;;;;;;;8.22;55.97;96167.13;4950980;28;20215;-65
2022/02/12 06:23:42;;;;;;;49.88;29.92;;;;;;;8.28;55.83;96162.91;4953598;29;20214;-63
2022/02/12 06:26:09;;;;;;;47.47;29.48;;;;;;;8.04;56.08;96178.28;4954654;29;20300;-63
2022/02/12 06:28:36;;;;;;;52.72;30.65;;;;;;;7.84;57.10;96179.34;4953890;29;20214;-64
2022/02/12 06:31:03;;;;;;;51.08;31.90;;;;;;;8.08;56.59;96178.66;4954660;29;20640;-63
2022/02/12 06:33:30;;;;;;;50.95;29.80;;;;;;;8.34;55.77;96157.63;4953797;29;20204;-64
2022/02/12 06:36:00;;;;;;;47.58;29.42;;;;;;;8.03;56.18;96173.22;4937977;29;20204;-63
2022/02/12 06:38:27;;;;;;;49.83;30.80;;;;;;;8.32;55.36;96185.75;4953826;29;20687;-64
2022/02/12 06:40:55;;;;;;;48.85;29.33;;;;;;;8.44;55.38;96183.28;4953657;29;20211;-65
2022/02/12 06:43:22;;;;;;;47.38;29.75;;;;;;;8.23;55.57;96197.44;4953917;29;20200;-64
2022/02/12 06:45:49;;;;;;;45.78;28.88;;;;;;;8.17;55.79;96191.22;4954755;29;20177;-63
2022/02/12 06:48:18;;;;;;;46.80;28.85;;;;;;;8.31;55.10;96206.88;4954057;29;20195;-64
2022/02/12 06:50:46;;;;;;;47.13;31.30;;;;;;;8.75;54.91;96207.63;4953995;29;20218;-65
2022/02/12 06:53:13;;;;;;;41.42;26.70;;;;;;;8.46;54.90;96208.22;4954289;29;20629;-62
2022/02/12 06:55:40;;;;;;;48.83;30.75;;;;;;;9.20;52.93;96216.91;4954012;29;20211;-64
2022/02/12 06:58:07;;;;;;;42.72;28.83;;;;;;;9.41;52.27;96213.09;4953891;29;20236;-66
2022/02/12 07:00:34;;;;;;;47.42;28.00;;;;;;;9.25;52.15;96212.84;4953043;29;20512;-63
2022/02/12 07:03:01;;;;;;;38.88;25.23;;;;;;;9.12;52.45;96229.47;4953910;29;20192;-65
2022/02/12 07:05:28;;;;;;;39.60;26.13;;;;;;;9.66;51.33;96233.97;4952625;28;20744;-66
2022/02/12 07:07:55;;;;;;;36.55;24.92;;;;;;;9.34;51.93;96232.50;4952698;28;20599;-64
2022/02/12 07:10:22;;;;;;;37.50;25.10;;;;;;;9.19;51.36;96230.19;4952320;28;20215;-64
2022/02/12 07:12:48;;;;;;;37.75;23.80;;;;;;;9.83;50.53;96227.16;4952284;28;20238;-64
2022/02/12 07:15:15;;;;;;;36.65;24.05;;;;;;;9.31;51.71;96243.34;4952324;28;20619;-64
2022/02/12 07:17:42;;;;;;;35.03;22.63;;;;;;;9.58;50.56;96219.34;4952603;28;20593;-66
2022/02/12 07:20:11;;;;;;;34.15;21.88;;;;;;;9.27;50.99;96247.44;4952322;28;20258;-65
2022/02/12 07:22:42;;;;;;;33.58;21.33;;;;;;;8.85;51.50;96239.28;4952454;28;20207;-65
2022/02/12 07:25:12;;;;;;;36.33;22.35;;;;;;;9.02;51.04;96244.81;4951248;28;20290;-66
2022/02/12 07:27:40;;;;;;;34.35;22.02;;;;;;;9.52;50.23;96245.59;4952097;28;20332;-66
2022/02/12 07:30:12;;;;;;;30.25;20.15;;;;;;;9.62;52.33;96240.66;4952226;28;20759;-65
2022/02/12 07:32:41;;;;;;;29.45;19.77;;;;;;;9.85;50.08;96240.84;4952949;28;20212;-65
2022/02/12 07:35:13;;;;;;;28.90;19.58;;;;;;;10.60;48.51;96234.31;4953096;29;20211;-66
2022/02/12 07:37:43;;;;;;;29.50;19.13;;;;;;;10.37;47.56;96249.94;4953243;29;20326;-66
2022/02/12 07:40:16;;;;;;;28.30;17.23;;;;;;;10.00;47.12;96249.13;4953107;29;20220;-65
2022/02/12 07:42:44;;;;;;;25.77;16.20;;;;;;;10.18;46.67;96243.94;4953512;29;20273;-65
2022/02/12 07:45:12;;;;;;;29.95;16.17;;;;;;;9.77;47.27;96233.28;4953357;29;20251;-64
2022/02/12 07:47:39;;;;;;;62.47;39.88;;;;;;;9.89;48.07;96261.13;4956167;29;20192;-65
2022/02/12 07:50:09;;;;;;;74.93;49.80;;;;;;;9.73;46.40;96250.41;4959055;29;20200;-67
2022/02/12 07:52:36;;;;;;;25.50;17.90;;;;;;;9.62;46.73;96249.31;4960483;29;20646;-66
2022/02/12 07:55:04;;;;;;;22.10;13.73;;;;;;;9.05;47.40;96239.94;4959895;29;20234;-67
2022/02/12 07:57:32;;;;;;;24.20;14.95;;;;;;;9.47;47.06;96253.31;4962960;29;20215;-66
2022/02/12 07:59:59;;;;;;;27.45;14.20;;;;;;;9.34;46.42;96242.94;4960589;29;20231;-67
2022/02/12 08:02:25;;;;;;;25.90;14.13;;;;;;;9.38;46.69;96257.22;4959888;29;20211;-67
2022/02/12 08:04:54;;;;;;;19.67;11.40;;;;;;;9.19;46.39;96261.59;4958850;29;20290;-66
2022/02/12 08:07:29;;;;;;;20.48;12.88;;;;;;;9.53;46.45;96249.81;4952823;29;20649;-65
2022/02/12 08:10:02;;;;;;;20.52;12.27;;;;;;;9.80;45.49;96243.28;4951688;29;20705;-68
2022/02/12 08:12:28;;;;;;;16.27;11.05;;;;;;;10.00;45.43;96249.13;4952232;29;20192;-67
2022/02/12 08:14:57;;;;;;;17.60;11.18;;;;;;;10.00;44.49;96249.13;4952539;29;20235;-65
2022/02/12 08:17:25;;;;;;;18.05;11.23;;;;;;;10.50;44.01;96244.53;4952175;29;20224;-66
2022/02/12 08:19:53;;;;;;;21.25;14.02;;;;;;;10.13;43.95;96247.19;4952219;29;20235;-69
2022/02/12 08:22:20;;;;;;;38.22;24.73;;;;;;;10.66;44.07;96244.69;4952466;29;20203;-65
2022/02/12 08:24:47;;;;;;;17.08;9.93;;;;;;;10.44;42.68;96240.97;4952886;29;20674;-64
2022/02/12 08:27:14;;;;;;;14.63;9.05;;;;;;;10.04;43.53;96239.81;4953482;29;20212;-65
2022/02/12 08:29:45;;;;;;;12.85;9.10;;;;;;;10.31;42.76;96238.50;4951910;29;20706;-65
2022/02/12 08:32:13;;;;;;;13.13;7.45;;;;;;;10.10;43.22;96238.97;4952435;29;20658;-67
2022/02/12 08:34:42;;;;;;;14.73;8.93;;;;;;;10.88;41.89;96237.94;4951740;29;20195;-65
2022/02/12 08:37:11;;;;;;;24.38;8.93;;;;;;;10.57;41.78;96240.78;4951912;29;20300;-66
2022/02/12 08:39:45;;;;;;;14.77;8.10;;;;;;;11.03;40.85;96259.31;4952020;29;20900;-66
2022/02/12 08:42:12;;;;;;;18.35;8.50;;;;;;;10.84;41.11;96220.22;4953307;29;20587;-66
2022/02/12 08:44:39;;;;;;;17.60;7.97;;;;;;;11.02;41.00;96243.78;4951587;28;20263;-64
2022/02/12 08:47:09;;;;;;;12.63;7.43;;;;;;;11.63;40.69;96246.00;4952625;29;20200;-66
2022/02/12 08:49:37;;;;;;;11.00;8.00;;;;;;;11.03;40.39;96251.44;4951298;29;20191;-66
2022/02/12 08:52:05;;;;;;;10.47;7.00;;;;;;;10.25;41.04;96268.22;4951585;29;20452;-66
2022/02/12 08:54:34;;;;;;;40.55;26.50;;;;;;;11.01;41.31;96258.72;4951648;29;20463;-67
2022/02/12 08:57:02;;;;;;;11.68;7.93;;;;;;;10.96;40.75;96261.22;4951889;29;20547;-66
2022/02/12 08:59:31;;;;;;;15.75;7.40;;;;;;;11.84;39.57;96248.88;4951847;29;20200;-66
2022/02/12 09:02:07;;;;;;;14.17;6.80;;;;;;;12.13;38.99;96257.66;4951924;29;20601;-68
2022/02/12 09:04:34;;;;;;;11.17;7.40;;;;;;;12.19;38.08;96251.44;4951301;29;20428;-66
2022/02/12 09:07:02;;;;;;;12.10;6.70;;;;;;;11.80;38.64;96254.84;4951821;29;20526;-68
2022/02/12 09:09:29;;;;;;;10.88;6.75;;;;;;;11.52;38.95;96250.22;4951515;29;20443;-66
2022/02/12 09:11:57;;;;;;;12.43;6.87;;;;;;;11.67;38.79;96255.06;4951859;29;20203;-66
2022/02/12 09:14:25;;;;;;;9.43;6.50;;;;;;;11.19;39.28;96229.78;4951333;29;20865;-66
2022/02/12 09:16:52;;;;;;;13.95;7.95;;;;;;;12.04;39.43;96238.78;4952063;29;20454;-67
2022/02/12 09:19:20;;;;;;;10.63;7.17;;;;;;;11.71;38.82;96248.31;4951820;29;20378;-65
2022/02/12 09:21:47;;;;;;;14.20;7.60;;;;;;;12.47;37.33;96238.34;4952550;29;20444;-66
2022/02/12 09:24:14;;;;;;;9.33;6.20;;;;;;;12.41;37.20;96234.00;4951893;29;20552;-65
2022/02/12 09:26:41;;;;;;;11.90;6.80;;;;;;;12.02;37.09;96234.81;4951811;29;20452;-66
2022/02/12 09:29:08;;;;;;;9.83;6.20;;;;;;;12.06;38.05;96241.22;4951338;29;20459;-67
2022/02/12 09:31:36;;;;;;;19.83;14.03;;;;;;;12.01;37.68;96236.63;4951578;29;20830;-67
2022/02/12 09:34:05;;;;;;;17.43;9.57;;;;;;;12.05;37.63;96245.66;4951273;29;20453;-67
2022/02/12 09:36:32;;;;;;;12.47;6.67;;;;;;;11.39;37.83;96249.63;4951063;28;20443;-64
2022/02/12 09:38:59;;;;;;;11.47;7.10;;;;;;;11.58;38.21;96248.53;4950644;29;20810;-65
2022/02/12 09:41:27;;;;;;;11.37;6.60;;;;;;;11.48;38.25;96250.94;4950919;29;21215;-66
2022/02/12 09:43:56;;;;;;;8.95;6.75;;;;;;;12.04;37.29;96249.31;4950803;29;20439;-65
2022/02/12 09:46:33;;;;;;;9.80;6.07;;;;;;;12.50;36.60;96248.38;4951142;29;20358;-66
2022/02/12 09:49:02;;;;;;;8.63;6.47;;;;;;;12.40;37.01;96237.69;4950340;29;20442;-66
2022/02/12 09:51:31;;;;;;;16.47;6.60;;;;;;;13.00;36.00;96223.00;4951133;29;20448;-65
2022/02/12 09:53:58;;;;;;;8.53;6.10;;;;;;;13.73;34.58;96232.56;4950647;29;20842;-66
2022/02/12 09:56:26;;;;;;;120.83;87.03;;;;;;;13.80;34.81;96230.56;4951378;28;20461;-65
2022/02/12 09:58:53;;;;;;;14.07;8.23;;;;;;;14.04;34.55;96237.22;4954109;28;20475;-65
2022/02/12 10:01:20;;;;;;;11.77;6.83;;;;;;;13.99;34.05;96226.63;4954099;28;20485;-66
2022/02/12 10:03:49;;;;;;;9.60;6.93;;;;;;;13.35;34.73;96220.19;4953510;28;20446;-68
2022/02/12 10:06:17;;;;;;;10.60;6.53;;;;;;;13.58;34.50;96219.19;4954418;28;20451;-67
2022/02/12 10:09:04;;;;;;;9.53;6.67;;;;;;;13.14;34.33;96223.50;4953725;28;20821;-66
2022/02/12 10:11:49;;;;;;;12.80;6.50;;;;;;;13.23;34.71;96216.03;4953775;28;20459;-63
2022/02/12 10:14:19;;;;;;;9.63;6.37;;;;;;;13.32;35.21;96214.59;4953648;28;20475;-65
2022/02/12 10:16:57;;;;;;;12.43;7.00;;;;;;;13.82;34.29;96204.78;4954942;29;20451;-66
2022/02/12 10:19:43;;;;;;;14.03;7.10;;;;;;;14.12;33.38;96221.78;4953769;29;20451;-69
2022/02/12 10:22:15;;;;;;;11.10;6.33;;;;;;;14.01;33.06;96209.50;4954482;29;20443;-65
2022/02/12 10:24:52;;;;;;;11.20;5.93;;;;;;;14.24;33.09;96216.38;4954501;29;20459;-66
2022/02/12 10:27:22;;;;;;;9.43;6.20;;;;;;;14.05;33.09;96215.13;4954709;29;20495;-64
2022/02/12 10:29:49;;;;;;;11.83;6.70;;;;;;;14.36;32.95;96222.34;4953770;29;20856;-63
2022/02/12 10:32:18;;;;;;;13.87;6.00;;;;;;;14.09;32.97;96216.19;4953843;28;20834;-65
2022/02/12 10:34:47;;;;;;;12.73;6.00;;;;;;;14.22;32.79;96210.56;4953222;29;20950;-66
2022/02/12 10:37:16;;;;;;;13.57;6.20;;;;;;;13.75;33.58;96209.44;4954455;29;20446;-65
2022/02/12 10:39:59;;;;;;;9.30;5.83;;;;;;;14.63;32.32;96190.75;4953318;29;20992;-65
2022/02/12 10:42:31;;;;;;;11.07;6.10;;;;;;;15.05;31.46;96195.06;4954241;29;20480;-66
2022/02/12 10:45:08;;;;;;;7.90;5.57;;;;;;;14.81;31.82;96187.75;4952948;29;20454;-65
2022/02/12 10:47:35;;;;;;;7.90;5.63;;;;;;;14.30;31.94;96190.91;4954129;29;20539;-65
2022/02/12 10:50:03;;;;;;;9.53;5.67;;;;;;;15.10;31.08;96187.22;4953746;29;20443;-65
2022/02/12 10:52:45;;;;;;;8.83;5.77;;;;;;;15.36;31.51;96187.41;4954510;29;20444;-64
2022/02/12 10:55:41;;;;;;;7.77;5.33;;;;;;;15.97;30.84;96176.97;4953422;29;20442;-66
2022/02/12 10:58:13;;;;;;;10.10;6.50;;;;;;;15.11;31.39;96178.25;4953931;29;21021;-65
2022/02/12 11:00:41;;;;;;;6.53;5.33;;;;;;;15.49;29.80;96174.56;4954238;29;20447;-67
2022/02/12 11:03:12;;;;;;;10.33;5.40;;;;;;;15.65;29.52;96173.63;4953974;29;20461;-66
2022/02/12 11:05:41;;;;;;;9.07;5.73;;;;;;;15.36;30.06;96172.38;4954041;29;20521;-67
2022/02/12 11:08:09;;;;;;;10.73;5.83;;;;;;;15.24;30.46;96172.53;4953130;28;20451;-67
2022/02/12 11:10:38;;;;;;;7.20;5.50;;;;;;;15.22;29.91;96168.53;4953521;29;20444;-65
2022/02/12 11:13:08;;;;;;;9.23;5.93;;;;;;;15.69;29.22;96169.41;4953564;29;20491;-67
2022/02/12 11:15:36;;;;;;;10.07;5.47;;;;;;;15.83;29.40;96164.47;4953815;29;20534;-65
2022/02/12 11:18:20;;;;;;;8.43;5.57;;;;;;;15.73;29.49;96164.44;4953976;29;20479;-66
2022/02/12 11:20:48;;;;;;;10.93;5.67;;;;;;;15.86;29.49;96164.75;4953531;29;20966;-66
2022/02/12 11:23:21;;;;;;;10.03;5.70;;;;;;;16.43;29.45;96154.13;4953340;29;20518;-66
2022/02/12 11:26:15;;;;;;;8.87;6.30;;;;;;;15.69;29.06;96168.63;4953464;29;20530;-65
2022/02/12 11:28:42;;;;;;;10.10;5.97;;;;;;;15.82;29.23;96137.22;4953027;29;20754;-65
2022/02/12 11:31:20;;;;;;;10.70;5.77;;;;;;;14.24;30.16;96168.94;4953235;29;20470;-65
2022/02/12 11:34:19;;;;;;;13.60;6.37;;;;;;;13.63;31.61;96163.97;4954164;29;20450;-67
2022/02/12 11:36:47;;;;;;;10.47;6.33;;;;;;;13.52;32.05;96172.78;4939044;29;20463;-66